• Join FlightAware (Why Join?)
  • Login
  • US Flag GB Flag 
18:09 EST


 

Airport Tracker/Info


-or-


 

Live Flight TrackerFlight Track Log ✈ RPA3496 ✈ 16-May-2014 ✈ KBOS - KPHL

Flight Track Log - Related Links

Times and Time Zones

All times are in EDT time to prevent confusion due to time zone crossing. See the RPA3496 flight status page for this flight to view local times or setup timezone preferences in your user account.

Time Position Orientation Groundspeed Altitude Reporting Facility
EDT Latitude Longitude Course Direction KTS MPH feet Rate Location/Type
14:15 42.3500 -71.0167 160° South 143 165 900  Level KA90
14:16 42.3333 -71.0000 144° Southeast 166 191 2,200 1,920 Climbing KA90
14:17 42.3075 -70.9586 130° Southeast 178 205 3,500 1,920 Climbing Boston Center
14:18 42.4318 -70.7878 118° Southeast  Level FlightAware Approximate
14:18 42.3222 -70.8689 77° East 245 282 5,400  Level Boston Center
14:19 42.3777 -70.7277 144° Southeast  Level FlightAware Approximate
14:19 42.3272 -70.7764 86° East 281 323 7,200  Level Boston Center
14:20 42.3067 -70.6927 164° South  Level FlightAware Approximate
14:20 42.2775 -70.6772 124° Southeast 268 308 10,500  Level Boston Center
14:21 42.2375 -70.6521 160° South  Level FlightAware Approximate
14:21 42.2031 -70.6428 161° South 278 320 12,100  Level Boston Center
14:22 42.1239 -70.6197 168° South 295 339 14,500 2,220 Climbing Boston Center
14:23 42.0444 -70.6564 199° South 300 345 16,800 2,040 Climbing Boston Center
14:24 41.9608 -70.6933 198° South 314 361 18,700 1,860 Climbing Boston Center
14:25 41.8844 -70.7625 214° Southwest 331 381 20,600 1,560 Climbing Boston Center
14:26 41.8122 -70.8478 221° Southwest 342 394 22,000 660 Climbing Boston Center
14:27 41.7175 -70.9556 220° Southwest 369 425 22,000  Level Boston Center
14:28 41.6381 -71.0467 221° Southwest 374 430 22,000  Level Boston Center
14:29 41.5581 -71.1361 220° Southwest 375 432 22,000  Level Boston Center
14:30 41.4869 -71.2158 220° Southwest 374 430 22,000  Level Boston Center
14:31 41.3931 -71.3250 221° Southwest 374 430 22,000  Level Boston Center
14:32 41.3131 -71.4131 220° Southwest 374 430 22,000  Level Boston Center
14:33 41.2514 -71.5022 227° Southwest 370 426 22,000  Level Boston Center
14:34 41.1758 -71.6183 229° Southwest 372 428 22,000  Level Boston Center
14:35 41.1089 -71.7222 229° Southwest 372 428 22,000  Level Boston Center
14:36 41.0400 -71.8292 230° Southwest 375 432 22,000  Level Boston Center
14:37 40.9658 -71.9456 230° Southwest 380 437 22,000  Level Boston Center
14:38 40.8969 -72.0511 229° Southwest 380 437 22,000  Level Boston Center
14:39 40.8286 -72.1567 229° Southwest 379 436 22,000  Level Boston Center
14:40 40.7592 -72.2614 229° Southwest 379 436 22,000  Level Boston Center
14:41 40.6839 -72.3786 230° Southwest 379 436 22,000  Level Boston Center
14:42 40.6150 -72.4811 228° Southwest 378 435 22,000 -420 Level Boston Center
14:43 40.5467 -72.5847 229° Southwest 377 434 21,200 -960 Descending Boston Center
14:44 40.4792 -72.6850 229° Southwest 369 425 20,100 -600 Descending Boston Center
14:45 40.4144 -72.7831 229° Southwest 362 417 20,000 -60 Descending Boston Center
14:46 40.3483 -72.8808 228° Southwest 360 414 20,000  Level Boston Center
14:47 40.2833 -72.9792 229° Southwest 360 414 20,000  Level Boston Center
14:48 40.2178 -73.0781 229° Southwest 360 414 20,000  Level Boston Center
14:49 40.1486 -73.1803 229° Southwest 359 413 20,000  Level Boston Center
14:50 40.0697 -73.2969 229° Southwest 358 412 20,000  Level Boston Center
14:51 40.0047 -73.3936 229° Southwest 358 412 20,000  Level Boston Center
14:52 39.9394 -73.4872 228° Southwest 353 406 20,000  Level Boston Center
14:53 39.8783 -73.5786 229° Southwest 352 405 20,000  Level Boston Center
14:54 39.8169 -73.6778 231° Southwest 352 405 20,000 -180 Level Boston Center
14:55 39.7533 -73.7758 230° Southwest 352 405 19,700 -960 Descending Boston Center
14:56 39.6956 -73.8761 233° Southwest 344 396 18,300 -1,500 Descending New York Center
14:59 39.5658 -74.0731 230° Southwest 318 366 15,100 -1,320 Descending Boston Center
15:00 39.5258 -74.1625 240° Southwest 298 343 14,100 -660 Descending Boston Center
15:00 39.5267 -74.2517 271° West 292 336 13,900 -720 Descending Washington Center
15:01 39.5281 -74.3647 271° West 298 343 12,800 -1,200 Descending Washington Center
15:03 39.5333 -74.6000 272° West 288 331 10,300 -1,260 Descending Philadelphia TRACON
15:04 39.5333 -74.6833 270° West 271 312 9,200 -960 Descending Philadelphia TRACON
15:05 39.5333 -74.7833 270° West 256 295 8,400 -600 Descending Philadelphia TRACON
15:06 39.5333 -74.8667 270° West 233 268 8,000 -240 Descending Philadelphia TRACON
15:07 39.5333 -74.9500 270° West 233 268 8,000  Level Philadelphia TRACON
15:09 39.5333 -75.0333 270° West 234 269 8,000  Level Philadelphia TRACON
15:10 39.5167 -75.1167 255° West 220 253 8,000  Level Philadelphia TRACON
15:11 39.5000 -75.2000 255° West 230 265 8,000  Level Philadelphia TRACON
15:12 39.4667 -75.2833 243° Southwest 221 254 8,000  Level Philadelphia TRACON
15:13 39.4500 -75.3500 252° West 218 251 8,000  Level Philadelphia TRACON
15:14 39.4167 -75.4167 237° Southwest 221 254 8,000  Level Philadelphia TRACON
15:15 39.4000 -75.4833 252° West 220 253 8,000 -240 Level Philadelphia TRACON
15:16 39.4167 -75.5500 288° West 242 278 7,600 -480 Descending Philadelphia TRACON
15:17 39.4833 -75.6167 322° Northwest 246 283 7,000 -300 Descending Philadelphia TRACON
15:18 39.5000 -75.5667 67° East 212 244 7,000  Level Philadelphia TRACON
15:19 39.5000 -75.4833 90° East 209 241 7,000  Level Philadelphia TRACON
15:20 39.5000 -75.4000 90° East 213 245 7,000 -480 Level Philadelphia TRACON
15:21 39.5333 -75.3500 49° Northeast 231 266 6,100 -540 Descending Philadelphia TRACON
15:22 39.5833 -75.2667 52° Northeast 233 268 6,000 -60 Descending Philadelphia TRACON
15:23 39.6167 -75.2167 49° Northeast 232 267 6,000  Level Philadelphia TRACON
15:24 39.6667 -75.1500 46° Northeast 240 276 6,000  Level Philadelphia TRACON
15:25 39.7167 -75.0833 46° Northeast 233 268 6,000  Level Philadelphia TRACON
15:26 39.7500 -75.0333 49° Northeast 209 241 6,000 -60 Level Philadelphia TRACON
15:27 39.7833 -74.9667 57° Northeast 198 228 5,900 -420 Descending Philadelphia TRACON
15:28 39.8167 -74.9167 49° Northeast 204 235 5,200 -480 Descending Philadelphia TRACON
15:29 39.8500 -74.8500 57° Northeast 220 253 5,000 -120 Descending Philadelphia TRACON
15:30 39.9167 -74.8333 11° North 229 264 5,000 -600 Level Philadelphia TRACON
15:31 39.9333 -74.8833 294° West 172 198 3,900 -1,020 Descending Philadelphia TRACON
15:32 39.9333 -74.9500 270° West 161 185 3,000 -480 Descending Philadelphia TRACON
15:33 39.9167 -75.0000 247° West 167 192 3,000 -300 Level Philadelphia TRACON
15:34 39.9000 -75.0667 252° West 173 199 2,500 -720 Descending Philadelphia TRACON
15:35 39.9000 -75.1333 270° West 158 182 1,500 -900 Descending Philadelphia TRACON
15:36 39.8833 -75.1667 237° Southwest 143 165 800 -720 Descending Philadelphia TRACON
15:37 39.8833 -75.2167 270° West 138 159 200 -600 Descending Philadelphia TRACON